Check out our new BloomSky Weather System.

Active alerts

Houston, TX
  Details for Houston, TX River Flood Warning  +1 additional alert
Fort Bend, TX
  Details for Fort Bend, TX River Flood Warning  +1 additional alert


Thunder radar  blitzortung!


Rain radar more information rain snow radar


Visit our other weather sites:

Template documentation
and downloads

And another site



Weather Underground History page Text

Daily Summary for January 7, 2018 Units:  English    Metric   Both
« Previous Day
Next Day »
Daily Weekly Monthly Yearly Custom
  High: Low: Average:
Temperature: TemperatureF °F 43.5 °F 55.8 °F
Dew Point: DewpointF °F 42.4 °F 53.5 °F
Humidity: Humidity % 79 % 92 %
Wind Speed: WindSpeedMPH mph 0.0 mph 1.5 mph
Wind Gust: WindSpeedGustMPH mph - -
Wind:- - SE
Pressure: PressureIn in 29.88 in -
Precipitation: 0.00 in    
Historical Graphs
 
 
Tabular Data for January 7, 2018
Time Temperature Dew Point Pressure Wind Wind Speed Wind Gust Humidity Rainfall Rate (Hourly)
TemperatureF °F DewpointF °F PressureIn in Calm     Humidity % HourlyPrecipIn in
00:00 48.4 °F 44.1 °F 30.24 in Calm   5.0 mph 85 % 0.00 in
00:02 48.4 °F 44.1 °F 30.24 in SE 2.0 mph 5.0 mph 85 % 0.00 in
00:07 48.4 °F 44.1 °F 30.25 in SE 1.0 mph 5.0 mph 85 % 0.00 in
00:09 48.4 °F 44.1 °F 30.24 in East 1.0 mph 5.0 mph 85 % 0.00 in
00:15 48.4 °F 44.4 °F 30.25 in Calm   4.0 mph 86 % 0.00 in
00:20 48.0 °F 44.1 °F 30.24 in Calm   3.0 mph 86 % 0.00 in
00:25 47.8 °F 43.9 °F 30.24 in Calm   3.0 mph 86 % 0.00 in
00:35 47.7 °F 44.1 °F 30.23 in ESE 1.0 mph 3.0 mph 87 % 0.00 in
00:37 47.7 °F 44.1 °F 30.23 in Calm   3.0 mph 87 % 0.00 in
00:38 47.7 °F 44.1 °F 30.23 in Calm   3.0 mph 87 % 0.00 in
00:44 47.5 °F 43.9 °F 30.23 in Calm   2.0 mph 87 % 0.00 in
00:49 47.3 °F 43.7 °F 30.23 in Calm   2.0 mph 87 % 0.00 in
00:55 47.1 °F 43.7 °F 30.22 in ESE 1.0 mph 2.0 mph 88 % 0.00 in
00:59 47.3 °F 43.9 °F 30.22 in Calm   2.0 mph 88 % 0.00 in
01:04 47.1 °F 43.7 °F 30.22 in Calm   2.0 mph 88 % 0.00 in
01:09 46.8 °F 43.3 °F 30.22 in Calm   2.0 mph 88 % 0.00 in
01:11 46.8 °F 43.7 °F 30.22 in Calm   2.0 mph 89 % 0.00 in
01:16 46.6 °F 43.5 °F 30.22 in Calm     89 % 0.00 in
01:21 46.2 °F 43.2 °F 30.22 in Calm   1.0 mph 89 % 0.00 in
01:22 46.2 °F 43.2 °F 30.22 in Calm   1.0 mph 89 % 0.00 in
01:28 46.2 °F 43.5 °F 30.21 in Calm   1.0 mph 90 % 0.00 in
01:33 46.0 °F 43.3 °F 30.21 in Calm   1.0 mph 90 % 0.00 in
01:38 46.0 °F 43.3 °F 30.21 in Calm   1.0 mph 90 % 0.00 in
01:43 46.0 °F 43.5 °F 30.21 in Calm     91 % 0.00 in
01:48 46.0 °F 43.5 °F 30.20 in Calm     91 % 0.00 in
01:53 45.9 °F 43.3 °F 30.20 in Calm     91 % 0.00 in
01:58 45.9 °F 43.3 °F 30.20 in Calm   1.0 mph 91 % 0.00 in
01:59 45.9 °F 43.3 °F 30.20 in Calm   1.0 mph 91 % 0.00 in
02:04 45.9 °F 43.7 °F 30.20 in Calm   1.0 mph 92 % 0.00 in
02:06 45.9 °F 43.7 °F 30.20 in Calm   1.0 mph 92 % 0.00 in
02:11 46.0 °F 43.9 °F 30.20 in Calm   1.0 mph 92 % 0.00 in
02:16 46.0 °F 44.1 °F 30.20 in Calm   1.0 mph 93 % 0.00 in
02:21 46.0 °F 44.1 °F 30.20 in Calm   1.0 mph 93 % 0.00 in
02:26 46.2 °F 44.2 °F 30.19 in Calm   1.0 mph 93 % 0.00 in
02:31 46.2 °F 44.2 °F 30.19 in Calm   1.0 mph 93 % 0.00 in
02:33 46.2 °F 44.2 °F 30.19 in Calm   1.0 mph 93 % 0.00 in
02:34 46.2 °F 44.2 °F 30.19 in Calm   1.0 mph 93 % 0.00 in
02:39 46.2 °F 44.2 °F 30.19 in Calm   1.0 mph 93 % 0.00 in
02:42 46.2 °F 44.2 °F 30.19 in Calm   1.0 mph 93 % 0.00 in
02:47 46.2 °F 44.2 °F 30.18 in Calm   1.0 mph 93 % 0.00 in
02:52 46.2 °F 44.2 °F 30.18 in Calm     93 % 0.00 in
02:53 46.2 °F 44.2 °F 30.18 in Calm     93 % 0.00 in
02:58 46.2 °F 44.6 °F 30.18 in Calm   1.0 mph 94 % 0.00 in
03:03 46.2 °F 44.2 °F 30.18 in Calm   1.0 mph 93 % 0.00 in
03:08 46.0 °F 44.4 °F 30.18 in Calm   1.0 mph 94 % 0.00 in
03:13 46.0 °F 44.4 °F 30.18 in Calm     94 % 0.00 in
03:14 46.0 °F 44.4 °F 30.18 in Calm     94 % 0.00 in
03:19 45.9 °F 44.2 °F 30.17 in Calm     94 % 0.00 in
03:22 45.9 °F 44.2 °F 30.17 in Calm     94 % 0.00 in
03:27 45.7 °F 44.1 °F 30.18 in Calm     94 % 0.00 in
03:29 45.7 °F 44.1 °F 30.17 in Calm     94 % 0.00 in
03:34 45.7 °F 44.1 °F 30.17 in Calm   1.0 mph 94 % 0.00 in
03:35 45.5 °F 43.9 °F 30.17 in Calm   1.0 mph 94 % 0.00 in
03:40 45.3 °F 43.7 °F 30.17 in Calm   1.0 mph 94 % 0.00 in
03:41 45.3 °F 43.7 °F 30.17 in Calm   1.0 mph 94 % 0.00 in
03:46 45.3 °F 43.7 °F 30.17 in Calm   1.0 mph 94 % 0.00 in
03:49 45.1 °F 43.5 °F 30.17 in Calm   1.0 mph 94 % 0.00 in
03:54 45.1 °F 43.5 °F 30.17 in Calm   1.0 mph 94 % 0.00 in
03:57 45.1 °F 43.9 °F 30.17 in Calm   1.0 mph 95 % 0.00 in
04:02 45.0 °F 43.7 °F 30.17 in Calm     95 % 0.00 in
04:05 45.0 °F 43.7 °F 30.17 in Calm     95 % 0.00 in
04:10 44.8 °F 43.5 °F 30.17 in Calm   1.0 mph 95 % 0.00 in
04:12 44.8 °F 43.5 °F 30.17 in Calm   1.0 mph 95 % 0.00 in
04:17 44.4 °F 43.2 °F 30.17 in Calm   1.0 mph 95 % 0.00 in
04:22 44.2 °F 43.0 °F 30.16 in Calm   1.0 mph 95 % 0.00 in
04:27 44.1 °F 42.8 °F 30.16 in Calm   1.0 mph 95 % 0.00 in
04:31 44.1 °F 42.8 °F 30.16 in Calm   1.0 mph 95 % 0.00 in
04:35 44.1 °F 42.8 °F 30.16 in Calm     95 % 0.00 in
04:36 43.9 °F 42.6 °F 30.16 in Calm     95 % 0.00 in
04:42 43.9 °F 42.6 °F 30.16 in Calm     95 % 0.00 in
04:43 43.9 °F 42.6 °F 30.16 in Calm     95 % 0.00 in
04:48 43.9 °F 42.6 °F 30.15 in SE 1.0 mph   95 % 0.00 in
04:51 43.9 °F 42.6 °F 30.15 in Calm   1.0 mph 95 % 0.00 in
04:53 43.9 °F 42.8 °F 30.15 in Calm   1.0 mph 96 % 0.00 in
04:58 43.9 °F 42.8 °F 30.15 in Calm   1.0 mph 96 % 0.00 in
05:03 43.7 °F 42.6 °F 30.15 in Calm   1.0 mph 96 % 0.00 in
05:05 43.7 °F 42.6 °F 30.15 in Calm   1.0 mph 96 % 0.00 in
05:07 43.7 °F 42.6 °F 30.15 in Calm   1.0 mph 96 % 0.00 in
05:10 43.5 °F 42.4 °F 30.15 in Calm   1.0 mph 96 % 0.00 in
05:13 43.7 °F 42.6 °F 30.15 in Calm   1.0 mph 96 % 0.00 in
05:17 43.9 °F 42.8 °F 30.15 in Calm   1.0 mph 96 % 0.00 in
05:22 44.1 °F 43.0 °F 30.15 in Calm   1.0 mph 96 % 0.00 in
05:23 44.1 °F 43.0 °F 30.15 in Calm   1.0 mph 96 % 0.00 in
05:28 44.2 °F 43.2 °F 30.15 in Calm   1.0 mph 96 % 0.00 in
05:31 44.1 °F 43.0 °F 30.15 in Calm   1.0 mph 96 % 0.00 in
05:32 44.1 °F 43.0 °F 30.15 in Calm   1.0 mph 96 % 0.00 in
05:38 44.1 °F 43.0 °F 30.16 in Calm   1.0 mph 96 % 0.00 in
05:39 44.1 °F 43.0 °F 30.16 in Calm   1.0 mph 96 % 0.00 in
05:42 44.2 °F 43.2 °F 30.15 in Calm   1.0 mph 96 % 0.00 in
05:46 44.2 °F 43.2 °F 30.15 in Calm   1.0 mph 96 % 0.00 in
05:48 44.2 °F 43.2 °F 30.15 in Calm   1.0 mph 96 % 0.00 in
05:51 44.2 °F 43.5 °F 30.15 in Calm   1.0 mph 97 % 0.00 in
05:57 44.4 °F 43.7 °F 30.15 in Calm     97 % 0.00 in
06:02 44.4 °F 43.7 °F 30.15 in Calm     97 % 0.00 in
06:03 44.4 °F 43.7 °F 30.15 in Calm     97 % 0.00 in
06:08 44.6 °F 43.9 °F 30.14 in Calm     97 % 0.00 in
06:09 44.8 °F 44.1 °F 30.14 in Calm     97 % 0.00 in
06:14 44.8 °F 44.1 °F 30.14 in Calm     97 % 0.00 in
06:15 44.8 °F 44.1 °F 30.14 in Calm     97 % 0.00 in
06:16 44.8 °F 44.1 °F 30.14 in Calm     97 % 0.00 in
06:21 45.0 °F 44.2 °F 30.14 in Calm     97 % 0.00 in
06:26 45.1 °F 44.4 °F 30.14 in Calm   1.0 mph 97 % 0.00 in
06:29 45.3 °F 44.6 °F 30.14 in Calm   1.0 mph 97 % 0.00 in
06:34 45.9 °F 45.3 °F 30.14 in Calm   1.0 mph 98 % 0.00 in
06:39 46.0 °F 45.3 °F 30.14 in Calm   1.0 mph 97 % 0.00 in
06:44 46.0 °F 45.3 °F 30.14 in Calm   1.0 mph 97 % 0.00 in
06:49 46.2 °F 45.5 °F 30.14 in Calm   1.0 mph 97 % 0.00 in
06:50 46.2 °F 45.5 °F 30.14 in Calm   1.0 mph 97 % 0.00 in
06:55 46.2 °F 45.5 °F 30.14 in Calm   1.0 mph 97 % 0.00 in
07:00 46.2 °F 45.5 °F 30.14 in Calm   1.0 mph 97 % 0.00 in
07:06 46.2 °F 45.5 °F 30.14 in Calm   1.0 mph 97 % 0.00 in
07:07 46.2 °F 45.5 °F 30.14 in Calm   1.0 mph 97 % 0.00 in
07:12 46.0 °F 45.3 °F 30.14 in Calm   1.0 mph 97 % 0.00 in
07:17 46.0 °F 45.3 °F 30.13 in Calm     97 % 0.00 in
07:22 46.2 °F 45.5 °F 30.13 in Calm     97 % 0.00 in
07:27 46.8 °F 46.2 °F 30.13 in Calm   1.0 mph 98 % 0.00 in
07:32 46.9 °F 46.4 °F 30.13 in Calm   1.0 mph 98 % 0.00 in
07:37 47.3 °F 46.8 °F 30.13 in Calm   1.0 mph 98 % 0.00 in
07:42 47.8 °F 47.3 °F 30.13 in Calm   2.0 mph 98 % 0.00 in
07:45 48.0 °F 47.5 °F 30.13 in ESE 1.0 mph 2.0 mph 98 % 0.00 in
07:50 48.7 °F 48.2 °F 30.13 in Calm   2.0 mph 98 % 0.00 in
07:55 49.1 °F 48.6 °F 30.13 in South 2.0 mph 2.0 mph 98 % 0.00 in
07:57 49.3 °F 48.7 °F 30.13 in SE 1.0 mph 2.0 mph 98 % 0.00 in
07:58 49.3 °F 48.7 °F 30.13 in Calm   2.0 mph 98 % 0.00 in
08:03 49.6 °F 49.1 °F 30.13 in East 1.0 mph 3.0 mph 98 % 0.00 in
08:06 49.8 °F 49.3 °F 30.13 in Calm   3.0 mph 98 % 0.00 in
08:11 50.2 °F 49.6 °F 30.13 in SE 1.0 mph 3.0 mph 98 % 0.00 in
08:12 50.2 °F 49.6 °F 30.13 in ESE 1.0 mph 3.0 mph 98 % 0.00 in
08:17 50.7 °F 50.2 °F 30.13 in Calm   5.0 mph 98 % 0.00 in
08:22 51.3 °F 50.9 °F 30.13 in ESE 2.0 mph 5.0 mph 99 % 0.00 in
08:26 51.6 °F 51.3 °F 30.13 in ESE 2.0 mph 5.0 mph 99 % 0.00 in
08:27 51.6 °F 51.3 °F 30.13 in ESE 2.0 mph 5.0 mph 99 % 0.00 in
08:32 52.2 °F 51.8 °F 30.13 in ESE 2.0 mph 5.0 mph 99 % 0.00 in
08:37 52.5 °F 52.2 °F 30.13 in SSE 3.0 mph 6.0 mph 99 % 0.00 in
08:39 52.7 °F 52.3 °F 30.13 in SE 3.0 mph 6.0 mph 99 % 0.00 in
08:42 53.1 °F 52.7 °F 30.13 in ESE 5.0 mph 6.0 mph 99 % 0.00 in
08:44 53.2 °F 52.9 °F 30.12 in ESE 3.0 mph 6.0 mph 99 % 0.00 in
08:49 53.4 °F 53.1 °F 30.12 in ESE 5.0 mph 8.0 mph 99 % 0.00 in
08:54 53.8 °F 53.4 °F 30.11 in SSE 6.0 mph 8.0 mph 99 % 0.00 in
08:56 54.0 °F 53.6 °F 30.11 in SSW 4.0 mph 11.0 mph 99 % 0.00 in
09:01 54.1 °F 53.8 °F 30.11 in SE 4.0 mph 11.0 mph 99 % 0.00 in
09:03 54.3 °F 54.0 °F 30.11 in SE 1.0 mph 11.0 mph 99 % 0.00 in
09:08 54.7 °F 54.3 °F 30.12 in SE 3.0 mph 11.0 mph 99 % 0.00 in
09:13 55.0 °F 54.7 °F 30.12 in East 1.0 mph 11.0 mph 99 % 0.00 in
09:18 55.4 °F 55.0 °F 30.13 in South 3.0 mph 8.0 mph 99 % 0.00 in
09:23 55.8 °F 55.4 °F 30.12 in SE 4.0 mph 8.0 mph 99 % 0.00 in
09:28 55.9 °F 55.6 °F 30.12 in SE 3.0 mph 9.0 mph 99 % 0.00 in
09:33 56.1 °F 55.6 °F 30.12 in SSE 3.0 mph 9.0 mph 98 % 0.00 in
09:38 56.3 °F 55.8 °F 30.11 in SSE 3.0 mph 9.0 mph 98 % 0.00 in
09:43 56.7 °F 56.1 °F 30.12 in SE 3.0 mph 9.0 mph 98 % 0.00 in
09:46 56.7 °F 56.1 °F 30.12 in SSE 3.0 mph 9.0 mph 98 % 0.00 in
09:51 56.8 °F 56.3 °F 30.11 in SE 4.0 mph 8.0 mph 98 % 0.00 in
09:56 57.0 °F 56.5 °F 30.11 in South 3.0 mph 7.0 mph 98 % 0.00 in
09:58 57.2 °F 56.7 °F 30.12 in SSE 2.0 mph 7.0 mph 98 % 0.00 in
10:01 57.4 °F 56.8 °F 30.12 in South 3.0 mph 7.0 mph 98 % 0.00 in
10:06 57.6 °F 57.0 °F 30.11 in East 7.0 mph 7.0 mph 98 % 0.00 in
10:10 57.7 °F 57.2 °F 30.11 in ESE 4.0 mph 7.0 mph 98 % 0.00 in
10:11 57.7 °F 57.2 °F 30.11 in SSE 4.0 mph 8.0 mph 98 % 0.00 in
10:16 57.9 °F 57.4 °F 30.11 in SE 3.0 mph 8.0 mph 98 % 0.00 in
10:21 58.3 °F 57.7 °F 30.11 in SSE 4.0 mph 8.0 mph 98 % 0.00 in
10:22 58.3 °F 57.7 °F 30.11 in SE 3.0 mph 8.0 mph 98 % 0.00 in
10:24 58.3 °F 57.7 °F 30.11 in SE 3.0 mph 8.0 mph 98 % 0.00 in
10:29 58.6 °F 57.7 °F 30.11 in SSE 2.0 mph 8.0 mph 97 % 0.00 in
10:34 58.8 °F 58.3 °F 30.11 in SE 3.0 mph 7.0 mph 98 % 0.00 in
10:38 59.2 °F 58.3 °F 30.11 in SE 3.0 mph 7.0 mph 97 % 0.00 in
10:43 59.5 °F 58.6 °F 30.10 in ESE 6.0 mph 7.0 mph 97 % 0.00 in
10:45 59.5 °F 58.6 °F 30.11 in East 9.0 mph 9.0 mph 97 % 0.00 in
10:50 59.7 °F 58.8 °F 30.11 in SSE 2.0 mph 9.0 mph 97 % 0.00 in
10:51 59.7 °F 58.8 °F 30.11 in SE 5.0 mph 9.0 mph 97 % 0.00 in
10:56 60.1 °F 59.0 °F 30.11 in SE 2.0 mph 9.0 mph 96 % 0.00 in
11:01 60.3 °F 59.2 °F 30.11 in SSW 2.0 mph 8.0 mph 96 % 0.00 in
11:05 60.4 °F 59.4 °F 30.11 in SE 4.0 mph 8.0 mph 96 % 0.00 in
11:10 60.6 °F 59.5 °F 30.11 in South 4.0 mph 7.0 mph 96 % 0.00 in
11:14 60.8 °F 59.4 °F 30.11 in SE 8.0 mph 8.0 mph 95 % 0.00 in
11:19 61.0 °F 59.5 °F 30.11 in SSE 5.0 mph 9.0 mph 95 % 0.00 in
11:24 61.2 °F 59.7 °F 30.10 in SE 8.0 mph 9.0 mph 95 % 0.00 in
11:29 61.3 °F 59.5 °F 30.10 in SE 4.0 mph 9.0 mph 94 % 0.00 in
11:35 61.3 °F 59.5 °F 30.09 in SE 5.0 mph 8.0 mph 94 % 0.00 in
11:39 61.9 °F 60.1 °F 30.09 in ESE 6.0 mph 8.0 mph 94 % 0.00 in
11:44 62.4 °F 60.6 °F 30.08 in SSE 3.0 mph 8.0 mph 94 % 0.00 in
11:49 63.0 °F 60.6 °F 30.08 in SE 4.0 mph 8.0 mph 92 % 0.00 in
11:54 63.5 °F 61.2 °F 30.07 in East 6.0 mph 10.0 mph 92 % 0.00 in
11:59 63.9 °F 60.6 °F 30.06 in SE 7.0 mph 10.0 mph 89 % 0.00 in
12:00 64.0 °F 60.8 °F 30.06 in SSE 7.0 mph 11.0 mph 89 % 0.00 in
12:06 64.6 °F 61.0 °F 30.05 in SE 7.0 mph 11.0 mph 88 % 0.00 in
12:09 64.9 °F 61.3 °F 30.05 in South 5.0 mph 11.0 mph 88 % 0.00 in
12:14 65.8 °F 61.9 °F 30.04 in South 6.0 mph 11.0 mph 87 % 0.00 in
12:19 66.4 °F 61.7 °F 30.04 in South 5.0 mph 11.0 mph 85 % 0.00 in
12:25 66.6 °F 61.9 °F 30.04 in SSW 2.0 mph 11.0 mph 85 % 0.00 in
12:28 66.9 °F 61.5 °F 30.03 in SE 3.0 mph 9.0 mph 83 % 0.00 in
12:33 67.3 °F 61.9 °F 30.02 in SSE 6.0 mph 12.0 mph 83 % 0.00 in
12:43 67.3 °F 61.5 °F 30.01 in SSE 6.0 mph 12.0 mph 82 % 0.00 in
12:47 67.3 °F 61.5 °F 30.00 in SSE 5.0 mph 11.0 mph 82 % 0.00 in
12:48 67.3 °F 61.5 °F 30.00 in SSE 6.0 mph 11.0 mph 82 % 0.00 in
12:53 67.5 °F 61.3 °F 29.99 in SE 2.0 mph 11.0 mph 81 % 0.00 in
12:58 67.6 °F 61.5 °F 29.99 in SSE 6.0 mph 11.0 mph 81 % 0.00 in
13:00 67.6 °F 61.2 °F 29.99 in South 6.0 mph 11.0 mph 80 % 0.00 in
13:09 67.6 °F 61.2 °F 29.98 in SSE 7.0 mph 11.0 mph 80 % 0.00 in
13:14 67.6 °F 61.2 °F 29.98 in SSW 1.0 mph 13.0 mph 80 % 0.00 in
13:19 67.8 °F 61.0 °F 29.98 in SSE 8.0 mph 13.0 mph 79 % 0.00 in
13:24 68.2 °F 61.7 °F 29.97 in SSE 4.0 mph 13.0 mph 80 % 0.00 in
13:29 68.4 °F 61.5 °F 29.97 in SW 3.0 mph 12.0 mph 79 % 0.00 in
13:34 68.5 °F 61.7 °F 29.97 in SE 4.0 mph 12.0 mph 79 % 0.00 in
13:37 68.5 °F 61.7 °F 29.97 in SSE 3.0 mph 10.0 mph 79 % 0.00 in
13:42 68.4 °F 61.5 °F 29.96 in ESE 8.0 mph 8.0 mph 79 % 0.00 in
13:47 68.2 °F 61.3 °F 29.96 in SE 3.0 mph 9.0 mph 79 % 0.00 in
13:52 68.2 °F 61.7 °F 29.96 in SSE 5.0 mph 9.0 mph 80 % 0.00 in
13:53 68.2 °F 61.7 °F 29.96 in ESE 4.0 mph 9.0 mph 80 % 0.00 in
13:58 67.8 °F 61.3 °F 29.96 in SSE 3.0 mph 9.0 mph 80 % 0.00 in
14:03 67.6 °F 61.5 °F 29.95 in South 2.0 mph 8.0 mph 81 % 0.00 in
14:08 67.6 °F 61.5 °F 29.95 in SE 3.0 mph 7.0 mph 81 % 0.00 in
14:13 67.5 °F 61.3 °F 29.94 in SE 4.0 mph 8.0 mph 81 % 0.00 in
14:18 67.3 °F 61.2 °F 29.94 in SSE 7.0 mph 10.0 mph 81 % 0.00 in
14:23 67.3 °F 61.5 °F 29.94 in SSE 2.0 mph 10.0 mph 82 % 0.00 in
14:26 67.3 °F 61.5 °F 29.94 in SSE 4.0 mph 10.0 mph 82 % 0.00 in
14:31 67.1 °F 61.3 °F 29.94 in SSE 4.0 mph 10.0 mph 82 % 0.00 in
14:37 66.9 °F 61.2 °F 29.94 in ESE 3.0 mph 9.0 mph 82 % 0.00 in
14:39 66.9 °F 61.2 °F 29.94 in SE 1.0 mph 9.0 mph 82 % 0.00 in
14:44 66.9 °F 61.2 °F 29.93 in SE 3.0 mph 6.0 mph 82 % 0.00 in
14:49 66.7 °F 61.3 °F 29.93 in SSE 2.0 mph 6.0 mph 83 % 0.00 in
14:55 66.6 °F 61.2 °F 29.93 in East 3.0 mph 6.0 mph 83 % 0.00 in
15:00 66.6 °F 61.2 °F 29.93 in SSE 1.0 mph 6.0 mph 83 % 0.00 in
15:05 66.4 °F 61.0 °F 29.92 in SE 2.0 mph 6.0 mph 83 % 0.00 in
15:10 66.4 °F 61.3 °F 29.92 in ESE 2.0 mph 4.0 mph 84 % 0.00 in
15:11 66.4 °F 61.3 °F 29.92 in ESE 1.0 mph 4.0 mph 84 % 0.00 in
15:16 66.2 °F 61.2 °F 29.92 in Calm   4.0 mph 84 % 0.00 in
15:22 66.0 °F 61.0 °F 29.92 in ESE 1.0 mph 4.0 mph 84 % 0.00 in
15:27 66.0 °F 61.0 °F 29.92 in SE 1.0 mph 4.0 mph 84 % 0.00 in
15:32 66.0 °F 61.3 °F 29.92 in Calm   4.0 mph 85 % 0.00 in
15:33 66.0 °F 61.3 °F 29.92 in South 2.0 mph 4.0 mph 85 % 0.00 in
15:38 65.8 °F 61.2 °F 29.92 in SE 3.0 mph 4.0 mph 85 % 0.00 in
15:42 65.8 °F 61.2 °F 29.92 in SSE 2.0 mph 4.0 mph 85 % 0.00 in
15:43 65.8 °F 61.2 °F 29.92 in SE 3.0 mph 4.0 mph 85 % 0.00 in
15:49 65.8 °F 61.2 °F 29.92 in SE 2.0 mph 4.0 mph 85 % 0.00 in
15:54 65.7 °F 61.3 °F 29.92 in South 1.0 mph 4.0 mph 86 % 0.00 in
15:59 65.5 °F 61.2 °F 29.93 in SE 4.0 mph 5.0 mph 86 % 0.00 in
16:04 65.5 °F 61.2 °F 29.93 in SE 3.0 mph 5.0 mph 86 % 0.00 in
16:09 65.3 °F 61.0 °F 29.93 in SE 2.0 mph 5.0 mph 86 % 0.00 in
16:12 65.1 °F 60.8 °F 29.93 in SE 2.0 mph 5.0 mph 86 % 0.00 in
16:17 65.1 °F 61.2 °F 29.93 in Calm   4.0 mph 87 % 0.00 in
16:22 64.9 °F 61.0 °F 29.94 in SE 1.0 mph 4.0 mph 87 % 0.00 in
16:27 64.9 °F 61.0 °F 29.94 in ESE 1.0 mph 4.0 mph 87 % 0.00 in
16:32 64.9 °F 61.0 °F 29.94 in Calm   3.0 mph 87 % 0.00 in
16:37 64.8 °F 60.8 °F 29.94 in Calm   2.0 mph 87 % 0.00 in
16:41 64.8 °F 61.2 °F 29.94 in Calm   2.0 mph 88 % 0.00 in
16:46 64.6 °F 61.0 °F 29.94 in Calm   1.0 mph 88 % 0.00 in
16:50 64.4 °F 60.8 °F 29.93 in ESE 1.0 mph 1.0 mph 88 % 0.00 in
16:52 64.4 °F 60.8 °F 29.93 in ESE 1.0 mph 1.0 mph 88 % 0.00 in
16:57 64.2 °F 60.6 °F 29.93 in East 1.0 mph 2.0 mph 88 % 0.00 in
17:02 64.0 °F 60.4 °F 29.93 in Calm   3.0 mph 88 % 0.00 in
17:07 64.0 °F 60.8 °F 29.93 in SE 2.0 mph 3.0 mph 89 % 0.00 in
17:08 63.9 °F 60.6 °F 29.93 in Calm   3.0 mph 89 % 0.00 in
17:12 63.9 °F 60.6 °F 29.93 in SE 1.0 mph 3.0 mph 89 % 0.00 in
17:16 63.7 °F 60.4 °F 29.93 in Calm   2.0 mph 89 % 0.00 in
17:18 63.7 °F 60.4 °F 29.93 in Calm   2.0 mph 89 % 0.00 in
17:23 63.7 °F 60.4 °F 29.93 in Calm   2.0 mph 89 % 0.00 in
17:28 63.3 °F 60.3 °F 29.93 in Calm   2.0 mph 90 % 0.00 in
17:33 63.3 °F 60.3 °F 29.93 in ESE 1.0 mph 2.0 mph 90 % 0.00 in
17:34 63.3 °F 60.3 °F 29.93 in Calm   2.0 mph 90 % 0.00 in
17:39 63.1 °F 60.1 °F 29.93 in Calm   1.0 mph 90 % 0.00 in
17:44 63.1 °F 60.1 °F 29.93 in Calm   1.0 mph 90 % 0.00 in
17:47 63.1 °F 60.4 °F 29.93 in Calm   1.0 mph 91 % 0.00 in
17:52 63.1 °F 60.4 °F 29.93 in East 1.0 mph 1.0 mph 91 % 0.00 in
17:54 63.1 °F 60.4 °F 29.93 in Calm   1.0 mph 91 % 0.00 in
17:59 63.1 °F 60.4 °F 29.94 in Calm   1.0 mph 91 % 0.00 in
18:01 63.0 °F 60.3 °F 29.94 in Calm   1.0 mph 91 % 0.00 in
18:06 63.0 °F 60.3 °F 29.94 in Calm   1.0 mph 91 % 0.00 in
18:09 63.0 °F 60.3 °F 29.94 in Calm   1.0 mph 91 % 0.00 in
18:14 63.0 °F 60.3 °F 29.94 in Calm   1.0 mph 91 % 0.00 in
18:19 63.0 °F 60.3 °F 29.94 in Calm   1.0 mph 91 % 0.00 in
18:24 63.0 °F 60.3 °F 29.94 in Calm   1.0 mph 91 % 0.00 in
18:29 63.0 °F 60.3 °F 29.94 in Calm   1.0 mph 91 % 0.00 in
18:30 63.0 °F 60.3 °F 29.94 in Calm   1.0 mph 91 % 0.00 in
18:35 63.0 °F 60.3 °F 29.94 in Calm   1.0 mph 91 % 0.00 in
18:40 63.0 °F 60.3 °F 29.94 in ESE 1.0 mph 1.0 mph 91 % 0.00 in
18:45 62.8 °F 60.1 °F 29.94 in Calm   1.0 mph 91 % 0.00 in
18:48 62.8 °F 60.4 °F 29.94 in SE 1.0 mph 1.0 mph 92 % 0.00 in
18:51 62.8 °F 60.4 °F 29.94 in SE 1.0 mph 1.0 mph 92 % 0.00 in
18:56 62.8 °F 60.4 °F 29.94 in Calm   1.0 mph 92 % 0.00 in
19:01 62.8 °F 60.4 °F 29.94 in Calm   1.0 mph 92 % 0.00 in
19:06 62.8 °F 60.4 °F 29.94 in Calm   1.0 mph 92 % 0.00 in
19:09 62.6 °F 60.3 °F 29.94 in Calm   1.0 mph 92 % 0.00 in
19:14 62.6 °F 60.3 °F 29.94 in Calm   1.0 mph 92 % 0.00 in
19:15 62.4 °F 60.1 °F 29.94 in Calm   1.0 mph 92 % 0.00 in
19:20 62.4 °F 60.1 °F 29.94 in Calm   1.0 mph 92 % 0.00 in
19:21 62.4 °F 60.1 °F 29.94 in Calm   1.0 mph 92 % 0.00 in
19:26 62.4 °F 60.1 °F 29.94 in Calm   1.0 mph 92 % 0.00 in
19:31 62.2 °F 59.9 °F 29.94 in Calm   1.0 mph 92 % 0.00 in
19:36 62.2 °F 59.9 °F 29.94 in Calm   1.0 mph 92 % 0.00 in
19:39 62.2 °F 59.9 °F 29.94 in Calm   1.0 mph 92 % 0.00 in
19:44 62.1 °F 60.1 °F 29.93 in SE 2.0 mph 2.0 mph 93 % 0.00 in
19:46 62.1 °F 60.1 °F 29.93 in SE 2.0 mph 3.0 mph 93 % 0.00 in
19:51 62.2 °F 60.3 °F 29.92 in SE 3.0 mph 7.0 mph 93 % 0.00 in
19:55 62.4 °F 60.4 °F 29.92 in NE 1.0 mph 7.0 mph 93 % 0.00 in
20:00 62.4 °F 60.4 °F 29.93 in NW 2.0 mph 7.0 mph 93 % 0.00 in
20:05 62.4 °F 60.4 °F 29.93 in Calm   6.0 mph 93 % 0.00 in
20:12 62.4 °F 60.4 °F 29.93 in SSE 1.0 mph 3.0 mph 93 % 0.00 in
20:15 62.4 °F 60.4 °F 29.93 in SSW 2.0 mph 3.0 mph 93 % 0.00 in
20:21 62.6 °F 60.8 °F 29.92 in SSE 2.0 mph 7.0 mph 94 % 0.00 in
20:26 62.8 °F 61.0 °F 29.92 in South 6.0 mph 7.0 mph 94 % 0.00 in
20:31 62.8 °F 61.0 °F 29.91 in SSE 4.0 mph 7.0 mph 94 % 0.00 in
20:36 62.8 °F 61.0 °F 29.91 in South 4.0 mph 7.0 mph 94 % 0.00 in
20:41 62.6 °F 60.8 °F 29.90 in SE 3.0 mph 7.0 mph 94 % 0.00 in
20:46 62.4 °F 61.0 °F 29.90 in ESE 3.0 mph 8.0 mph 95 % 0.00 in
20:51 62.4 °F 61.0 °F 29.90 in SSE 3.0 mph 8.0 mph 95 % 0.00 in
20:56 62.4 °F 61.0 °F 29.89 in SE 2.0 mph 8.0 mph 95 % 0.00 in
21:01 62.2 °F 60.8 °F 29.89 in SE 4.0 mph 7.0 mph 95 % 0.00 in
21:06 62.2 °F 60.8 °F 29.89 in SE 2.0 mph 7.0 mph 95 % 0.00 in
21:09 62.2 °F 60.8 °F 29.89 in ESE 2.0 mph 7.0 mph 95 % 0.00 in
21:12 62.2 °F 60.8 °F 29.89 in Calm   7.0 mph 95 % 0.00 in
21:17 62.2 °F 60.8 °F 29.88 in SE 2.0 mph 7.0 mph 95 % 0.00 in
21:23 62.1 °F 60.6 °F 29.88 in South 2.0 mph 5.0 mph 95 % 0.00 in
21:28 62.1 °F 61.0 °F 29.89 in East 2.0 mph 5.0 mph 96 % 0.00 in
21:34 62.1 °F 61.0 °F 29.89 in Calm   5.0 mph 96 % 0.00 in
21:43 62.1 °F 61.0 °F 29.88 in SE 3.0 mph 5.0 mph 96 % 0.00 in
21:56 62.1 °F 61.0 °F 29.88 in SSE 2.0 mph 9.0 mph 96 % 0.00 in
22:01 62.1 °F 61.0 °F 29.89 in Calm   9.0 mph 96 % 0.00 in
22:15 62.1 °F 61.2 °F 29.89 in NNW 2.0 mph 8.0 mph 97 % 0.00 in
22:30 62.1 °F 61.0 °F 29.89 in NNE 1.0 mph 10.0 mph 96 % 0.00 in
22:41 61.3 °F 60.3 °F 29.88 in Calm   6.0 mph 96 % 0.00 in
22:54 61.7 °F 60.8 °F 29.88 in SE 2.0 mph 5.0 mph 97 % 0.00 in
23:03 62.1 °F 61.5 °F 29.89 in West 1.0 mph 5.0 mph 98 % 0.00 in
23:08 62.4 °F 61.9 °F 29.88 in SSW 1.0 mph 5.0 mph 98 % 0.00 in
23:33 62.8 °F 62.2 °F 29.89 in NNW 3.0 mph 4.0 mph 98 % 0.00 in
23:46 62.4 °F 61.9 °F 29.89 in Calm   5.0 mph 98 % 0.00 in
23:56 62.8 °F 62.2 °F 29.89 in Calm   3.0 mph 98 % 0.00 in
Spring, Texas: Villages of Bridgestone
Compliments of Weather Underground - 3 mb

Script developed by  Jim McMurry - jmcmurry@mwt.net Adapted for the template by  Wim van der Kuil - Leuven-Template.eu

You find our weather info also at:

UK Metoffice

WeatherCloud

Weather Underground

Mid-South Weather Network

AWEKAS

Citizen Weather Observer Program (CWOP)

HAMweather, WeatherForYou, PWS Weather

Equipment we use:

Weather-station
Davis Vantage Vue

Weather-program
Meteohub

Weather-server
Debian 7.9 x86 (Guest)

Provider
DreamHost

Davis Vantage Vue

Meteohub

Debian 7.9 x86 (Guest)

DreamHost